sensor_id;sensor_type;location;lat;lon;timestamp;P1;durP1;ratioP1;P2;durP2;ratioP2
2632;SDS011;1326;48.692;16.870;2023-08-21T15:06:36;5.40;;;1.20;;
2632;SDS011;1326;48.692;16.870;2023-08-21T15:09:05;5.60;;;1.40;;
2632;SDS011;1326;48.692;16.870;2023-08-21T15:11:33;5.90;;;1.70;;
2632;SDS011;1326;48.692;16.870;2023-08-21T15:32:11;6.03;;;1.50;;
2632;SDS011;1326;48.692;16.870;2023-08-21T15:34:40;6.13;;;2.10;;
2632;SDS011;1326;48.692;16.870;2023-08-21T15:37:08;5.70;;;1.50;;
2632;SDS011;1326;48.692;16.870;2023-08-21T15:39:35;5.93;;;1.67;;
2632;SDS011;1326;48.692;16.870;2023-08-21T15:42:03;5.77;;;1.57;;
2632;SDS011;1326;48.692;16.870;2023-08-21T15:44:31;5.80;;;1.57;;
2632;SDS011;1326;48.692;16.870;2023-08-21T15:46:58;5.63;;;1.63;;
2632;SDS011;1326;48.692;16.870;2023-08-21T15:49:26;5.57;;;1.40;;
2632;SDS011;1326;48.692;16.870;2023-08-21T15:51:53;5.70;;;1.40;;
2632;SDS011;1326;48.692;16.870;2023-08-21T15:54:22;5.70;;;1.23;;
2632;SDS011;1326;48.692;16.870;2023-08-21T15:56:52;5.50;;;1.20;;
2632;SDS011;1326;48.692;16.870;2023-08-21T15:59:19;5.60;;;1.50;;
2632;SDS011;1326;48.692;16.870;2023-08-21T16:01:47;5.90;;;1.50;;
2632;SDS011;1326;48.692;16.870;2023-08-21T16:04:15;5.60;;;1.30;;
2632;SDS011;1326;48.692;16.870;2023-08-21T16:06:42;5.90;;;1.53;;
2632;SDS011;1326;48.692;16.870;2023-08-21T16:09:10;6.10;;;1.23;;
2632;SDS011;1326;48.692;16.870;2023-08-21T16:11:38;5.47;;;1.13;;
2632;SDS011;1326;48.692;16.870;2023-08-21T16:14:05;6.30;;;1.40;;
2632;SDS011;1326;48.692;16.870;2023-08-21T16:16:33;6.10;;;1.63;;
2632;SDS011;1326;48.692;16.870;2023-08-21T16:19:01;5.40;;;1.07;;
2632;SDS011;1326;48.692;16.870;2023-08-21T16:21:29;5.80;;;1.40;;
2632;SDS011;1326;48.692;16.870;2023-08-21T16:23:57;5.60;;;1.10;;
2632;SDS011;1326;48.692;16.870;2023-08-21T16:26:25;5.87;;;1.50;;
2632;SDS011;1326;48.692;16.870;2023-08-21T16:28:52;5.70;;;1.20;;
2632;SDS011;1326;48.692;16.870;2023-08-21T16:31:20;5.50;;;1.20;;
2632;SDS011;1326;48.692;16.870;2023-08-21T16:33:48;5.63;;;1.10;;
2632;SDS011;1326;48.692;16.870;2023-08-21T16:36:15;5.60;;;1.20;;
2632;SDS011;1326;48.692;16.870;2023-08-21T16:38:43;6.03;;;1.40;;
2632;SDS011;1326;48.692;16.870;2023-08-21T16:41:10;5.70;;;1.80;;
2632;SDS011;1326;48.692;16.870;2023-08-21T16:43:38;5.87;;;1.40;;
2632;SDS011;1326;48.692;16.870;2023-08-21T16:46:05;8.20;;;1.40;;
2632;SDS011;1326;48.692;16.870;2023-08-21T16:48:33;5.60;;;1.30;;
2632;SDS011;1326;48.692;16.870;2023-08-21T16:51:01;5.80;;;1.47;;
2632;SDS011;1326;48.692;16.870;2023-08-21T16:53:28;5.70;;;1.30;;
2632;SDS011;1326;48.692;16.870;2023-08-21T16:55:56;5.50;;;1.33;;
2632;SDS011;1326;48.692;16.870;2023-08-21T16:58:24;5.77;;;1.50;;
2632;SDS011;1326;48.692;16.870;2023-08-21T17:00:52;5.70;;;1.40;;
2632;SDS011;1326;48.692;16.870;2023-08-21T17:03:19;5.70;;;1.33;;
2632;SDS011;1326;48.692;16.870;2023-08-21T17:05:47;6.10;;;1.40;;
2632;SDS011;1326;48.692;16.870;2023-08-21T17:08:15;5.80;;;1.30;;
2632;SDS011;1326;48.692;16.870;2023-08-21T17:10:43;6.00;;;1.30;;
2632;SDS011;1326;48.692;16.870;2023-08-21T17:13:10;6.43;;;1.70;;
2632;SDS011;1326;48.692;16.870;2023-08-21T17:15:38;5.80;;;1.57;;
2632;SDS011;1326;48.692;16.870;2023-08-21T17:18:06;6.00;;;1.47;;
2632;SDS011;1326;48.692;16.870;2023-08-21T17:20:33;5.57;;;1.40;;
2632;SDS011;1326;48.692;16.870;2023-08-21T17:23:01;5.70;;;1.20;;
2632;SDS011;1326;48.692;16.870;2023-08-21T17:25:29;5.90;;;1.60;;
2632;SDS011;1326;48.692;16.870;2023-08-21T17:27:56;5.60;;;1.20;;
2632;SDS011;1326;48.692;16.870;2023-08-21T17:30:24;5.83;;;1.47;;
2632;SDS011;1326;48.692;16.870;2023-08-21T17:32:53;5.60;;;1.40;;
2632;SDS011;1326;48.692;16.870;2023-08-21T17:35:21;5.80;;;1.80;;
2632;SDS011;1326;48.692;16.870;2023-08-21T17:37:49;6.27;;;1.27;;
2632;SDS011;1326;48.692;16.870;2023-08-21T17:40:16;6.80;;;1.37;;
2632;SDS011;1326;48.692;16.870;2023-08-21T17:42:44;6.27;;;1.20;;
2632;SDS011;1326;48.692;16.870;2023-08-21T17:45:12;5.97;;;1.60;;
2632;SDS011;1326;48.692;16.870;2023-08-21T17:47:40;5.57;;;1.10;;
2632;SDS011;1326;48.692;16.870;2023-08-21T17:50:07;5.77;;;1.40;;
2632;SDS011;1326;48.692;16.870;2023-08-21T17:52:35;5.90;;;1.70;;
2632;SDS011;1326;48.692;16.870;2023-08-21T17:55:02;5.50;;;1.13;;
2632;SDS011;1326;48.692;16.870;2023-08-21T17:57:31;6.40;;;1.50;;
2632;SDS011;1326;48.692;16.870;2023-08-21T17:59:59;5.67;;;1.30;;
2632;SDS011;1326;48.692;16.870;2023-08-21T18:02:28;6.03;;;1.70;;
2632;SDS011;1326;48.692;16.870;2023-08-21T18:04:56;5.77;;;1.30;;
2632;SDS011;1326;48.692;16.870;2023-08-21T18:07:23;5.57;;;1.30;;
2632;SDS011;1326;48.692;16.870;2023-08-21T18:09:51;5.90;;;1.33;;
2632;SDS011;1326;48.692;16.870;2023-08-21T18:12:18;6.40;;;1.80;;
2632;SDS011;1326;48.692;16.870;2023-08-21T18:14:46;5.73;;;1.40;;
2632;SDS011;1326;48.692;16.870;2023-08-21T18:17:13;6.33;;;1.50;;
2632;SDS011;1326;48.692;16.870;2023-08-21T18:19:41;5.67;;;1.47;;
2632;SDS011;1326;48.692;16.870;2023-08-21T18:22:09;6.00;;;1.70;;
2632;SDS011;1326;48.692;16.870;2023-08-21T18:24:36;5.80;;;1.50;;
2632;SDS011;1326;48.692;16.870;2023-08-21T18:27:04;6.17;;;1.73;;
2632;SDS011;1326;48.692;16.870;2023-08-21T18:29:31;6.23;;;1.30;;
2632;SDS011;1326;48.692;16.870;2023-08-21T18:32:01;5.80;;;1.23;;
2632;SDS011;1326;48.692;16.870;2023-08-21T18:34:28;5.67;;;1.30;;
2632;SDS011;1326;48.692;16.870;2023-08-21T18:36:58;6.23;;;1.70;;
2632;SDS011;1326;48.692;16.870;2023-08-21T18:39:26;5.80;;;1.53;;
2632;SDS011;1326;48.692;16.870;2023-08-21T18:41:54;5.77;;;1.27;;
2632;SDS011;1326;48.692;16.870;2023-08-21T18:44:21;6.10;;;1.60;;
2632;SDS011;1326;48.692;16.870;2023-08-21T18:46:51;5.90;;;1.67;;
2632;SDS011;1326;48.692;16.870;2023-08-21T18:49:18;5.97;;;1.53;;
2632;SDS011;1326;48.692;16.870;2023-08-21T18:51:46;6.03;;;1.63;;
2632;SDS011;1326;48.692;16.870;2023-08-21T18:54:13;6.20;;;1.43;;
2632;SDS011;1326;48.692;16.870;2023-08-21T18:56:42;6.33;;;1.70;;
2632;SDS011;1326;48.692;16.870;2023-08-21T18:59:10;5.73;;;1.30;;
2632;SDS011;1326;48.692;16.870;2023-08-21T19:01:37;6.10;;;1.60;;
2632;SDS011;1326;48.692;16.870;2023-08-21T19:04:05;6.10;;;1.67;;
2632;SDS011;1326;48.692;16.870;2023-08-21T19:06:32;6.30;;;2.03;;
2632;SDS011;1326;48.692;16.870;2023-08-21T19:09:00;6.43;;;2.20;;
2632;SDS011;1326;48.692;16.870;2023-08-21T19:11:27;7.00;;;2.17;;
2632;SDS011;1326;48.692;16.870;2023-08-21T19:13:55;6.77;;;2.40;;
2632;SDS011;1326;48.692;16.870;2023-08-21T19:16:23;6.43;;;1.87;;
2632;SDS011;1326;48.692;16.870;2023-08-21T19:18:50;6.40;;;2.23;;
2632;SDS011;1326;48.692;16.870;2023-08-21T19:21:18;6.27;;;1.73;;
2632;SDS011;1326;48.692;16.870;2023-08-21T19:23:45;5.80;;;1.77;;
2632;SDS011;1326;48.692;16.870;2023-08-21T19:26:13;6.00;;;1.73;;
2632;SDS011;1326;48.692;16.870;2023-08-21T19:28:40;7.07;;;2.30;;
2632;SDS011;1326;48.692;16.870;2023-08-21T19:31:08;6.80;;;2.33;;
2632;SDS011;1326;48.692;16.870;2023-08-21T19:33:36;6.50;;;2.47;;
2632;SDS011;1326;48.692;16.870;2023-08-21T19:36:10;6.30;;;2.10;;
2632;SDS011;1326;48.692;16.870;2023-08-21T19:38:39;6.60;;;2.43;;
2632;SDS011;1326;48.692;16.870;2023-08-21T19:41:11;7.40;;;2.97;;
2632;SDS011;1326;48.692;16.870;2023-08-21T19:43:40;6.10;;;1.90;;
2632;SDS011;1326;48.692;16.870;2023-08-21T19:46:09;7.37;;;2.50;;
2632;SDS011;1326;48.692;16.870;2023-08-21T19:48:40;6.60;;;2.30;;
2632;SDS011;1326;48.692;16.870;2023-08-21T19:51:08;6.90;;;2.37;;
2632;SDS011;1326;48.692;16.870;2023-08-21T19:53:36;7.07;;;2.67;;
2632;SDS011;1326;48.692;16.870;2023-08-21T19:56:04;6.77;;;2.53;;
2632;SDS011;1326;48.692;16.870;2023-08-21T19:58:31;7.37;;;2.53;;
2632;SDS011;1326;48.692;16.870;2023-08-21T20:00:59;7.03;;;2.60;;
2632;SDS011;1326;48.692;16.870;2023-08-21T20:03:26;6.70;;;2.10;;
2632;SDS011;1326;48.692;16.870;2023-08-21T20:06:00;7.00;;;2.63;;
2632;SDS011;1326;48.692;16.870;2023-08-21T20:08:29;6.70;;;2.13;;
2632;SDS011;1326;48.692;16.870;2023-08-21T20:10:58;7.23;;;2.57;;
2632;SDS011;1326;48.692;16.870;2023-08-21T20:13:25;7.70;;;3.07;;
2632;SDS011;1326;48.692;16.870;2023-08-21T20:15:55;7.47;;;2.60;;
2632;SDS011;1326;48.692;16.870;2023-08-21T20:18:23;6.53;;;2.00;;
2632;SDS011;1326;48.692;16.870;2023-08-21T20:20:50;7.47;;;2.50;;
2632;SDS011;1326;48.692;16.870;2023-08-21T20:23:18;7.20;;;2.43;;
2632;SDS011;1326;48.692;16.870;2023-08-21T20:25:46;6.20;;;2.20;;
2632;SDS011;1326;48.692;16.870;2023-08-21T20:28:15;6.90;;;2.33;;
2632;SDS011;1326;48.692;16.870;2023-08-21T20:30:44;6.40;;;1.93;;
2632;SDS011;1326;48.692;16.870;2023-08-21T20:33:11;7.10;;;2.03;;
2632;SDS011;1326;48.692;16.870;2023-08-21T20:35:39;6.87;;;2.30;;
2632;SDS011;1326;48.692;16.870;2023-08-21T20:38:07;7.03;;;2.47;;
2632;SDS011;1326;48.692;16.870;2023-08-21T20:40:35;7.30;;;2.73;;
2632;SDS011;1326;48.692;16.870;2023-08-21T20:43:03;6.40;;;2.17;;
2632;SDS011;1326;48.692;16.870;2023-08-21T20:45:30;6.57;;;2.53;;
2632;SDS011;1326;48.692;16.870;2023-08-21T20:47:59;6.83;;;2.73;;
2632;SDS011;1326;48.692;16.870;2023-08-21T20:50:27;7.00;;;2.83;;
2632;SDS011;1326;48.692;16.870;2023-08-21T20:52:56;6.90;;;2.40;;
2632;SDS011;1326;48.692;16.870;2023-08-21T20:55:23;6.60;;;2.50;;
2632;SDS011;1326;48.692;16.870;2023-08-21T20:57:51;6.93;;;2.43;;
2632;SDS011;1326;48.692;16.870;2023-08-21T21:00:18;7.37;;;2.30;;
2632;SDS011;1326;48.692;16.870;2023-08-21T21:02:46;6.83;;;2.70;;
2632;SDS011;1326;48.692;16.870;2023-08-21T21:05:14;6.87;;;2.60;;
2632;SDS011;1326;48.692;16.870;2023-08-21T21:07:41;7.53;;;2.37;;
2632;SDS011;1326;48.692;16.870;2023-08-21T21:10:09;6.50;;;2.30;;
2632;SDS011;1326;48.692;16.870;2023-08-21T21:12:36;7.10;;;2.63;;
2632;SDS011;1326;48.692;16.870;2023-08-21T21:15:04;6.80;;;2.70;;
2632;SDS011;1326;48.692;16.870;2023-08-21T21:17:32;6.97;;;2.50;;
2632;SDS011;1326;48.692;16.870;2023-08-21T21:20:00;6.97;;;2.37;;
2632;SDS011;1326;48.692;16.870;2023-08-21T21:22:29;7.33;;;3.00;;
2632;SDS011;1326;48.692;16.870;2023-08-21T21:24:57;6.63;;;2.20;;
2632;SDS011;1326;48.692;16.870;2023-08-21T21:27:24;8.73;;;2.63;;
2632;SDS011;1326;48.692;16.870;2023-08-21T21:29:52;7.20;;;2.80;;
2632;SDS011;1326;48.692;16.870;2023-08-21T21:32:19;7.80;;;2.90;;
2632;SDS011;1326;48.692;16.870;2023-08-21T21:34:47;10.10;;;2.60;;
2632;SDS011;1326;48.692;16.870;2023-08-21T21:37:15;6.93;;;3.00;;
2632;SDS011;1326;48.692;16.870;2023-08-21T21:39:43;7.50;;;2.90;;
2632;SDS011;1326;48.692;16.870;2023-08-21T21:42:11;7.67;;;3.00;;
2632;SDS011;1326;48.692;16.870;2023-08-21T21:44:38;6.63;;;2.27;;
2632;SDS011;1326;48.692;16.870;2023-08-21T21:47:06;7.00;;;2.57;;
2632;SDS011;1326;48.692;16.870;2023-08-21T21:49:33;7.87;;;3.00;;
2632;SDS011;1326;48.692;16.870;2023-08-21T21:52:01;8.13;;;2.97;;
2632;SDS011;1326;48.692;16.870;2023-08-21T21:54:28;7.63;;;3.20;;
2632;SDS011;1326;48.692;16.870;2023-08-21T21:56:56;7.20;;;3.00;;
2632;SDS011;1326;48.692;16.870;2023-08-21T21:59:23;7.57;;;3.30;;
2632;SDS011;1326;48.692;16.870;2023-08-21T22:01:51;7.70;;;2.83;;
2632;SDS011;1326;48.692;16.870;2023-08-21T22:04:18;7.20;;;3.00;;
2632;SDS011;1326;48.692;16.870;2023-08-21T22:06:46;7.20;;;3.10;;
2632;SDS011;1326;48.692;16.870;2023-08-21T22:09:13;7.00;;;2.43;;
2632;SDS011;1326;48.692;16.870;2023-08-21T22:11:41;7.50;;;3.07;;
2632;SDS011;1326;48.692;16.870;2023-08-21T22:14:09;7.57;;;3.00;;
2632;SDS011;1326;48.692;16.870;2023-08-21T22:16:36;7.27;;;2.63;;
2632;SDS011;1326;48.692;16.870;2023-08-21T22:19:04;7.60;;;3.10;;
2632;SDS011;1326;48.692;16.870;2023-08-21T22:21:32;7.30;;;3.10;;
2632;SDS011;1326;48.692;16.870;2023-08-21T22:24:00;7.03;;;2.50;;
2632;SDS011;1326;48.692;16.870;2023-08-21T22:26:27;7.10;;;2.30;;
2632;SDS011;1326;48.692;16.870;2023-08-21T22:28:55;7.10;;;2.60;;
2632;SDS011;1326;48.692;16.870;2023-08-21T22:31:22;6.73;;;2.53;;
2632;SDS011;1326;48.692;16.870;2023-08-21T22:33:50;7.43;;;2.83;;
2632;SDS011;1326;48.692;16.870;2023-08-21T22:36:18;6.77;;;2.47;;
2632;SDS011;1326;48.692;16.870;2023-08-21T22:38:45;7.20;;;2.57;;
2632;SDS011;1326;48.692;16.870;2023-08-21T22:41:13;7.80;;;3.10;;
2632;SDS011;1326;48.692;16.870;2023-08-21T22:43:40;6.80;;;2.80;;
2632;SDS011;1326;48.692;16.870;2023-08-21T22:46:08;7.67;;;3.10;;
2632;SDS011;1326;48.692;16.870;2023-08-21T22:48:35;6.63;;;2.43;;
2632;SDS011;1326;48.692;16.870;2023-08-21T22:51:03;7.93;;;2.33;;
2632;SDS011;1326;48.692;16.870;2023-08-21T22:53:33;7.20;;;2.87;;
2632;SDS011;1326;48.692;16.870;2023-08-21T22:56:00;7.80;;;2.90;;
2632;SDS011;1326;48.692;16.870;2023-08-21T22:58:31;7.70;;;3.37;;
2632;SDS011;1326;48.692;16.870;2023-08-21T23:00:59;7.70;;;3.30;;
2632;SDS011;1326;48.692;16.870;2023-08-21T23:03:26;7.60;;;3.17;;
2632;SDS011;1326;48.692;16.870;2023-08-21T23:05:54;7.03;;;2.83;;
2632;SDS011;1326;48.692;16.870;2023-08-21T23:08:25;7.50;;;3.00;;
2632;SDS011;1326;48.692;16.870;2023-08-21T23:10:52;7.23;;;2.80;;
2632;SDS011;1326;48.692;16.870;2023-08-21T23:13:20;7.90;;;2.77;;
2632;SDS011;1326;48.692;16.870;2023-08-21T23:15:48;7.20;;;2.60;;
2632;SDS011;1326;48.692;16.870;2023-08-21T23:18:16;7.90;;;3.10;;
2632;SDS011;1326;48.692;16.870;2023-08-21T23:20:44;8.30;;;3.57;;
2632;SDS011;1326;48.692;16.870;2023-08-21T23:23:11;7.07;;;2.87;;
2632;SDS011;1326;48.692;16.870;2023-08-21T23:25:39;7.57;;;3.10;;
2632;SDS011;1326;48.692;16.870;2023-08-21T23:28:06;7.27;;;2.87;;
2632;SDS011;1326;48.692;16.870;2023-08-21T23:30:35;8.23;;;3.00;;
2632;SDS011;1326;48.692;16.870;2023-08-21T23:33:03;9.03;;;3.47;;
2632;SDS011;1326;48.692;16.870;2023-08-21T23:35:31;7.37;;;2.30;;
2632;SDS011;1326;48.692;16.870;2023-08-21T23:38:00;7.53;;;2.97;;
2632;SDS011;1326;48.692;16.870;2023-08-21T23:40:28;12.23;;;3.00;;
2632;SDS011;1326;48.692;16.870;2023-08-21T23:42:56;7.47;;;3.00;;
2632;SDS011;1326;48.692;16.870;2023-08-21T23:45:24;7.80;;;3.57;;
2632;SDS011;1326;48.692;16.870;2023-08-21T23:47:51;7.63;;;3.10;;
2632;SDS011;1326;48.692;16.870;2023-08-21T23:50:19;6.97;;;2.80;;
2632;SDS011;1326;48.692;16.870;2023-08-21T23:52:46;7.40;;;2.70;;
2632;SDS011;1326;48.692;16.870;2023-08-21T23:55:14;7.50;;;3.13;;
2632;SDS011;1326;48.692;16.870;2023-08-21T23:57:42;8.70;;;2.80;;
